Center Conway, New Hampshire
Current Conditions -  °F | °C
As of 6:54 AM on Monday 20 Oct 2014 (Local Time) from KIZG Reporting Station
Clear Clear  
Wind Chill: 33°   Ceiling: Unl
Heat Index: 38°   Visibility: 10mi
Dew Point: 21°   Wind: 7mph
Humidity: 51%   Direction: 300°WNW
Pressure: 29.94"   Gusts: NA
Location:  43.99°N, 71.06°W
Report Text: KIZG 201054Z AUTO 30006KT 10SM CLR 03/M06 A2994 RMK AO2 SLP142 T00331061
Loading
Personal Weather Stations






























Interactive Weather Map
Tropical Storm Tracking
New forecast layout! Learn more

10-Day Weather Forecast

Advertisements
Track Severe Weather on mobile